Terminal Aerodrome Forecast
Issued by NWS Twin Cities, MN

Home | Current Version | Previous Version | Text Only | Print | Product List | Glossary Off
Versions: 1 2 3 4 5 6 7 8 9 10 11 12 13 14 15 16 17 18 19 20

000
FTUS43 KMPX 260520
TAFSTC
TAF
KSTC 260520Z 2606/2706 18007KT P6SM FEW018 OVC100
     FM260800 19010KT 6SM -SN BR OVC015
     FM261200 20007KT P6SM BKN015 BKN100
      TEMPO 2613/2616 SCT015 OVC100
     FM261600 30011G18KT P6SM OVC020
     FM270000 33007KT P6SM OVC020=

USA.gov is the U.S. government's official web portal to all federal, state and local government web resources and services.